Time;durP1;ratioP1;P1;durP2;ratioP2;P2;SDS_P1;SDS_P2;PMS_P1;PMS_P2;Temp;Humidity;BMP_temperature;BMP_pressure;BME280_temperature;BME280_humidity;BME280_pressure;Samples;Min_cycle;Max_cycle;Signal;HPM_P1;HPM_P2
2021/11/24 00:01:40;;;;;;;9.43;5.35;;;7.00;87.70;;;;;;1905271;75;21069;-51
2021/11/24 00:04:10;;;;;;;8.28;4.78;;;7.00;87.80;;;;;;1905235;75;21066;-49
2021/11/24 00:06:39;;;;;;;12.40;5.83;;;7.00;87.90;;;;;;1905285;75;21011;-49
2021/11/24 00:09:09;;;;;;;9.55;5.45;;;6.90;87.80;;;;;;1905374;75;21023;-50
2021/11/24 00:11:38;;;;;;;9.18;5.85;;;6.90;87.60;;;;;;1905384;75;21062;-51
2021/11/24 00:14:07;;;;;;;8.90;5.30;;;6.90;87.90;;;;;;1905342;75;21066;-51
2021/11/24 00:16:37;;;;;;;12.85;5.35;;;6.90;88.10;;;;;;1905263;75;21045;-52
2021/11/24 00:19:06;;;;;;;10.60;5.67;;;6.90;87.90;;;;;;1905284;75;21007;-51
2021/11/24 00:21:36;;;;;;;10.85;6.62;;;6.90;88.10;;;;;;1905359;75;21069;-51
2021/11/24 00:24:05;;;;;;;11.80;6.97;;;7.00;88.60;;;;;;1905257;75;21023;-49
2021/11/24 00:26:35;;;;;;;12.65;7.37;;;7.10;88.90;;;;;;1905304;75;21090;-52
2021/11/24 00:29:04;;;;;;;11.22;7.15;;;7.20;88.70;;;;;;1905282;75;21077;-54
2021/11/24 00:31:34;;;;;;;10.72;5.83;;;7.30;88.60;;;;;;1905345;75;21097;-50
2021/11/24 00:34:03;;;;;;;10.63;6.75;;;7.30;88.80;;;;;;1905314;75;21031;-50
2021/11/24 00:36:32;;;;;;;10.85;6.10;;;7.40;87.70;;;;;;1905241;75;21106;-50
2021/11/24 00:39:02;;;;;;;11.15;6.83;;;7.40;88.40;;;;;;1905366;74;21779;-49
2021/11/24 00:41:31;;;;;;;11.10;6.62;;;7.50;88.50;;;;;;1905331;75;21153;-50
2021/11/24 00:44:01;;;;;;;11.80;7.65;;;7.50;88.10;;;;;;1905347;75;20992;-50
2021/11/24 00:46:30;;;;;;;10.93;7.17;;;7.50;87.00;;;;;;1905281;75;21007;-51
2021/11/24 00:49:00;;;;;;;14.58;7.28;;;7.50;87.80;;;;;;1905334;75;21031;-51
2021/11/24 00:51:29;;;;;;;12.68;7.58;;;7.50;88.70;;;;;;1905372;74;21124;-49
2021/11/24 00:53:58;;;;;;;8.48;5.25;;;7.50;87.30;;;;;;1905345;75;21118;-49
2021/11/24 00:56:32;;;;;;;9.95;5.87;;;7.40;86.40;;;;;;1905250;75;21007;-49
2021/11/24 00:58:58;;;;;;;9.98;5.67;;;7.30;86.50;;;;;;1904359;74;21043;-49
2021/11/24 01:01:27;;;;;;;10.65;6.53;;;7.20;86.80;;;;;;1905268;75;21077;-49
2021/11/24 01:03:57;;;;;;;13.53;6.30;;;7.10;86.90;;;;;;1905441;75;21027;-51
2021/11/24 01:06:26;;;;;;;11.35;5.80;;;7.00;86.90;;;;;;1905277;75;21008;-50
2021/11/24 01:08:55;;;;;;;10.53;5.83;;;7.00;86.70;;;;;;1905269;75;21007;-50
2021/11/24 01:11:24;;;;;;;9.25;5.33;;;6.90;86.70;;;;;;1905491;75;21007;-50
2021/11/24 01:13:54;;;;;;;11.90;5.70;;;6.90;86.70;;;;;;1905433;75;21040;-50
2021/11/24 01:16:23;;;;;;;11.95;5.95;;;6.80;86.80;;;;;;1905362;75;20984;-51
2021/11/24 01:18:52;;;;;;;8.58;5.65;;;6.80;87.10;;;;;;1905509;75;21015;-50
2021/11/24 01:21:22;;;;;;;10.05;6.30;;;6.80;87.20;;;;;;1905342;75;21024;-50
2021/11/24 01:23:52;;;;;;;8.85;4.72;;;6.80;86.90;;;;;;1905171;74;21031;-51
2021/11/24 01:26:21;;;;;;;12.82;6.90;;;6.70;86.90;;;;;;1905367;75;20987;-49
2021/11/24 01:28:50;;;;;;;10.93;6.53;;;6.70;86.80;;;;;;1905242;75;21011;-50
2021/11/24 01:31:19;;;;;;;12.70;6.30;;;6.70;86.90;;;;;;1905250;75;21015;-49
2021/11/24 01:33:49;;;;;;;11.33;5.70;;;6.70;87.40;;;;;;1905271;75;21039;-49
2021/11/24 01:36:18;;;;;;;12.28;6.87;;;6.70;87.10;;;;;;1905212;75;21121;-51
2021/11/24 01:38:48;;;;;;;9.13;5.05;;;6.70;87.20;;;;;;1905387;75;21043;-50
2021/11/24 01:41:17;;;;;;;12.23;6.72;;;6.70;87.20;;;;;;1905343;75;21043;-50
2021/11/24 01:43:47;;;;;;;13.93;6.87;;;6.70;87.10;;;;;;1905196;75;21031;-51
2021/11/24 01:46:16;;;;;;;10.98;6.87;;;6.70;87.20;;;;;;1905372;75;21035;-51
2021/11/24 01:48:46;;;;;;;12.40;7.35;;;6.70;87.40;;;;;;1905223;75;21011;-50
2021/11/24 01:51:15;;;;;;;14.25;7.58;;;6.70;87.30;;;;;;1905343;75;21089;-49
2021/11/24 01:53:45;;;;;;;10.78;6.70;;;6.70;87.20;;;;;;1905344;75;21027;-50
2021/11/24 01:56:15;;;;;;;11.30;6.22;;;6.70;87.10;;;;;;1905355;75;20979;-49
2021/11/24 01:58:45;;;;;;;14.33;7.47;;;6.70;87.20;;;;;;1905237;75;21039;-51
2021/11/24 02:01:15;;;;;;;16.55;8.05;;;6.70;87.00;;;;;;1905192;75;21081;-50
2021/11/24 02:03:44;;;;;;;12.03;6.67;;;6.60;87.10;;;;;;1905291;75;21015;-51
2021/11/24 02:06:14;;;;;;;14.00;6.85;;;6.70;87.30;;;;;;1905216;75;21090;-49
2021/11/24 02:08:43;;;;;;;10.05;5.78;;;6.60;87.20;;;;;;1905307;75;20984;-49
2021/11/24 02:11:12;;;;;;;12.95;7.25;;;6.60;87.20;;;;;;1905348;75;21054;-49
2021/11/24 02:13:41;;;;;;;13.72;7.28;;;6.60;87.00;;;;;;1905300;75;21016;-50
2021/11/24 02:16:11;;;;;;;10.23;6.25;;;6.60;87.40;;;;;;1905210;75;21016;-52
2021/11/24 02:18:40;;;;;;;14.30;7.50;;;6.60;87.40;;;;;;1905219;75;21065;-49
2021/11/24 02:21:10;;;;;;;13.35;8.23;;;6.50;87.20;;;;;;1905312;75;21120;-50
2021/11/24 02:23:39;;;;;;;12.33;6.50;;;6.50;87.20;;;;;;1905260;75;21043;-49
2021/11/24 02:26:09;;;;;;;14.15;7.75;;;6.60;87.40;;;;;;1905233;75;21078;-49
2021/11/24 02:28:39;;;;;;;14.63;7.28;;;6.50;87.40;;;;;;1905240;75;21046;-51
2021/11/24 02:31:09;;;;;;;12.43;7.20;;;6.50;87.70;;;;;;1905234;75;21073;-49
2021/11/24 02:33:41;;;;;;;12.75;7.50;;;6.60;87.50;;;;;;1904594;74;21015;-49
2021/11/24 02:36:10;;;;;;;12.00;7.12;;;6.60;87.50;;;;;;1903967;74;21082;-49
2021/11/24 02:38:40;;;;;;;10.68;6.58;;;6.60;87.50;;;;;;1915072;74;21074;-51
2021/11/24 02:41:09;;;;;;;14.33;8.00;;;6.50;87.30;;;;;;1924598;74;21102;-50
2021/11/24 02:43:38;;;;;;;18.23;9.28;;;6.50;87.20;;;;;;1924498;74;21081;-48
2021/11/24 02:46:08;;;;;;;11.10;7.47;;;6.40;87.10;;;;;;1924592;74;21015;-50
2021/11/24 02:48:37;;;;;;;18.42;10.00;;;6.40;87.40;;;;;;1924667;74;21007;-48
2021/11/24 02:51:07;;;;;;;18.55;9.00;;;6.30;87.20;;;;;;1924526;74;21460;-50
2021/11/24 02:53:37;;;;;;;19.75;10.85;;;6.20;87.50;;;;;;1924531;74;21002;-49
2021/11/24 02:56:07;;;;;;;16.62;9.65;;;6.20;87.60;;;;;;1924667;74;21035;-51
2021/11/24 02:58:37;;;;;;;16.37;8.78;;;6.20;87.70;;;;;;1924667;74;21046;-49
2021/11/24 03:01:06;;;;;;;11.30;7.22;;;6.20;87.50;;;;;;1924577;74;21011;-51
2021/11/24 03:03:35;;;;;;;17.77;10.65;;;6.20;87.80;;;;;;1924489;74;20991;-51
2021/11/24 03:06:04;;;;;;;15.43;9.60;;;6.10;87.90;;;;;;1924619;74;21043;-50
2021/11/24 03:08:33;;;;;;;18.02;10.35;;;6.10;87.90;;;;;;1924636;74;21003;-49
2021/11/24 03:11:03;;;;;;;10.20;6.35;;;6.10;87.80;;;;;;1924552;74;21014;-50
2021/11/24 03:13:32;;;;;;;15.32;9.25;;;6.00;87.60;;;;;;1924688;74;21006;-53
2021/11/24 03:16:02;;;;;;;12.80;9.18;;;6.00;88.20;;;;;;1924707;74;21065;-49
2021/11/24 03:18:31;;;;;;;24.27;11.10;;;6.10;88.10;;;;;;1924660;74;21069;-50
2021/11/24 03:21:00;;;;;;;25.68;13.38;;;6.00;87.80;;;;;;1924792;74;21140;-49
2021/11/24 03:23:30;;;;;;;18.20;9.30;;;6.00;88.10;;;;;;1924733;74;21065;-50
2021/11/24 03:25:59;;;;;;;15.13;9.25;;;6.00;88.00;;;;;;1924762;74;21097;-49
2021/11/24 03:28:28;;;;;;;27.95;15.15;;;6.00;87.90;;;;;;1924651;74;21056;-50
2021/11/24 03:30:57;;;;;;;17.77;11.45;;;6.00;87.80;;;;;;1924677;74;21800;-49
2021/11/24 03:33:27;;;;;;;24.75;13.50;;;5.90;88.00;;;;;;1924760;74;21014;-51
2021/11/24 03:35:56;;;;;;;19.60;11.65;;;6.00;88.10;;;;;;1924691;74;21011;-50
2021/11/24 03:38:25;;;;;;;28.55;13.20;;;6.00;87.20;;;;;;1921588;74;21055;-51
2021/11/24 03:40:55;;;;;;;24.25;13.48;;;6.00;86.30;;;;;;1905412;75;20983;-49
2021/11/24 03:43:24;;;;;;;28.62;14.10;;;5.90;86.70;;;;;;1905235;75;21016;-49
2021/11/24 03:45:53;;;;;;;19.57;11.90;;;5.80;86.90;;;;;;1905407;75;21007;-51
2021/11/24 03:48:23;;;;;;;15.58;9.80;;;5.80;86.90;;;;;;1905302;75;21032;-51
2021/11/24 03:50:53;;;;;;;39.55;11.88;;;5.80;85.40;;;;;;1905309;75;21012;-49
2021/11/24 03:53:22;;;;;;;26.82;10.95;;;5.70;85.00;;;;;;1905395;75;21015;-49
2021/11/24 03:55:52;;;;;;;23.50;10.08;;;5.70;85.40;;;;;;1905366;75;21155;-49
2021/11/24 03:58:21;;;;;;;24.43;10.93;;;5.60;84.90;;;;;;1905348;75;21011;-49
2021/11/24 04:00:50;;;;;;;19.07;8.93;;;5.50;85.10;;;;;;1905276;75;21057;-53
2021/11/24 04:03:19;;;;;;;18.65;9.83;;;5.50;85.30;;;;;;1905326;75;21524;-52
2021/11/24 04:05:52;;;;;;;20.92;10.43;;;5.50;84.90;;;;;;1905239;75;21063;-50
2021/11/24 04:08:20;;;;;;;15.90;8.23;;;5.40;85.60;;;;;;1905074;75;21094;-52
2021/11/24 04:10:49;;;;;;;20.15;9.63;;;5.40;84.60;;;;;;1905367;75;21051;-49
2021/11/24 04:13:18;;;;;;;16.93;8.68;;;5.40;85.90;;;;;;1905365;75;20996;-50
2021/11/24 04:15:48;;;;;;;14.85;7.90;;;5.40;85.50;;;;;;1905249;75;21019;-50
2021/11/24 04:18:17;;;;;;;17.17;7.97;;;5.40;85.50;;;;;;1905212;75;21023;-51
2021/11/24 04:20:46;;;;;;;11.75;7.25;;;5.40;85.30;;;;;;1905180;75;21515;-49
2021/11/24 04:23:15;;;;;;;12.75;5.95;;;5.40;85.40;;;;;;1905161;75;20995;-51
2021/11/24 04:25:45;;;;;;;14.98;6.90;;;5.40;84.00;;;;;;1905281;75;21031;-52
2021/11/24 04:28:14;;;;;;;13.13;5.12;;;5.30;85.00;;;;;;1905127;75;21019;-49
2021/11/24 04:30:43;;;;;;;8.05;6.20;;;5.30;84.40;;;;;;1905191;74;21081;-49
2021/11/24 04:33:12;;;;;;;10.82;6.08;;;5.20;83.80;;;;;;1905255;75;21003;-49
2021/11/24 04:35:42;;;;;;;8.88;5.92;;;5.20;85.20;;;;;;1905311;75;21531;-51
2021/11/24 04:38:11;;;;;;;10.25;6.08;;;5.30;85.70;;;;;;1905348;75;21089;-48
2021/11/24 04:40:41;;;;;;;10.05;4.97;;;5.30;85.80;;;;;;1905223;74;21067;-53
2021/11/24 04:43:12;;;;;;;8.85;5.25;;;5.30;85.40;;;;;;1905284;75;21140;-50
2021/11/24 04:45:41;;;;;;;13.75;7.92;;;5.30;85.10;;;;;;1905266;75;21055;-48
2021/11/24 04:48:10;;;;;;;8.18;4.95;;;5.30;83.30;;;;;;1905364;75;20983;-49
2021/11/24 04:50:40;;;;;;;9.93;4.47;;;5.30;84.30;;;;;;1905411;75;21078;-50
2021/11/24 04:53:09;;;;;;;7.22;4.22;;;5.30;84.00;;;;;;1905312;75;21061;-50
2021/11/24 04:55:39;;;;;;;5.90;4.08;;;5.20;83.10;;;;;;1905253;75;21008;-48
2021/11/24 04:58:08;;;;;;;6.87;4.97;;;5.20;83.40;;;;;;1905214;75;21023;-49
2021/11/24 05:00:38;;;;;;;7.47;5.20;;;5.20;84.70;;;;;;1905391;75;21081;-49
2021/11/24 05:03:07;;;;;;;8.08;5.42;;;5.20;85.00;;;;;;1905337;75;21019;-49
2021/11/24 05:05:37;;;;;;;8.93;4.58;;;5.30;85.50;;;;;;1905348;75;21015;-51
2021/11/24 05:08:07;;;;;;;7.83;5.45;;;5.40;85.90;;;;;;1905352;75;21051;-50
2021/11/24 05:10:36;;;;;;;10.08;5.95;;;5.50;86.10;;;;;;1905460;75;21007;-51
2021/11/24 05:13:08;;;;;;;11.60;5.60;;;5.60;86.30;;;;;;1905458;75;21089;-51
2021/11/24 05:15:41;;;;;;;8.38;4.17;;;5.70;86.20;;;;;;1905369;75;21047;-48
2021/11/24 05:18:17;;;;;;;10.18;5.67;;;5.70;84.50;;;;;;1905362;75;21474;-49
2021/11/24 05:20:41;;;;;;;11.68;5.55;;;5.70;85.70;;;;;;1904727;74;21508;-50
2021/11/24 05:23:14;;;;;;;7.08;4.10;;;5.80;86.20;;;;;;1905271;75;21018;-48
2021/11/24 05:25:41;;;;;;;8.13;5.17;;;5.80;85.10;;;;;;1905068;74;21023;-48
2021/11/24 05:28:10;;;;;;;8.65;4.67;;;5.80;85.50;;;;;;1905216;75;21008;-48
2021/11/24 05:30:40;;;;;;;6.70;4.55;;;5.70;83.90;;;;;;1905108;75;21016;-49
2021/11/24 05:33:09;;;;;;;7.75;4.58;;;5.70;82.30;;;;;;1905289;75;21019;-49
2021/11/24 05:35:38;;;;;;;6.50;4.58;;;5.70;83.70;;;;;;1905286;74;21011;-49
2021/11/24 05:38:08;;;;;;;8.40;4.37;;;5.60;82.00;;;;;;1905232;75;21027;-50
2021/11/24 05:40:38;;;;;;;4.90;3.05;;;5.50;81.30;;;;;;1905208;75;21133;-50
2021/11/24 05:43:07;;;;;;;5.87;3.90;;;5.40;78.30;;;;;;1905266;75;21011;-49
2021/11/24 05:45:48;;;;;;;5.83;3.92;;;5.30;80.30;;;;;;1905226;75;21069;-48
2021/11/24 05:48:13;;;;;;;9.68;6.12;;;5.20;80.20;;;;;;1904544;74;21117;-50
2021/11/24 05:50:46;;;;;;;10.78;6.45;;;5.20;80.50;;;;;;1905239;75;21061;-51
2021/11/24 05:53:18;;;;;;;6.08;4.90;;;5.20;81.30;;;;;;1905334;75;21032;-49
2021/11/24 05:55:50;;;;;;;7.87;5.47;;;5.10;78.10;;;;;;1905355;75;21064;-49
2021/11/24 05:58:21;;;;;;;6.90;5.20;;;5.10;79.00;;;;;;1905304;75;21042;-52
2021/11/24 06:00:50;;;;;;;6.70;5.87;;;5.10;80.40;;;;;;1905307;75;21446;-52
2021/11/24 06:03:19;;;;;;;5.50;4.42;;;5.10;80.50;;;;;;1905062;75;21081;-48
2021/11/24 06:05:50;;;;;;;8.55;5.67;;;5.10;80.40;;;;;;1905264;75;21000;-51
2021/11/24 06:08:19;;;;;;;9.10;5.60;;;5.10;78.40;;;;;;1905217;75;21125;-50
2021/11/24 06:10:48;;;;;;;4.67;3.75;;;5.20;77.00;;;;;;1905165;75;21078;-49
2021/11/24 06:13:18;;;;;;;6.05;4.28;;;5.10;78.30;;;;;;1905292;75;21556;-49
2021/11/24 06:15:47;;;;;;;3.72;2.77;;;5.10;75.40;;;;;;1905241;75;21007;-48
2021/11/24 06:18:16;;;;;;;5.10;4.58;;;5.10;74.30;;;;;;1905190;75;21031;-48
2021/11/24 06:20:46;;;;;;;6.15;4.58;;;5.10;75.50;;;;;;1905293;74;21007;-48
2021/11/24 06:23:15;;;;;;;4.30;3.62;;;5.10;75.10;;;;;;1905330;75;20999;-48
2021/11/24 06:25:44;;;;;;;6.03;2.50;;;5.00;74.80;;;;;;1905340;75;20984;-48
2021/11/24 06:28:14;;;;;;;3.17;2.87;;;5.00;72.90;;;;;;1905369;75;21003;-49
2021/11/24 06:30:43;;;;;;;5.55;3.90;;;4.90;74.50;;;;;;1905307;75;21078;-49
2021/11/24 06:33:12;;;;;;;5.78;3.60;;;4.90;73.40;;;;;;1905420;75;21024;-49
2021/11/24 06:35:41;;;;;;;4.85;3.95;;;4.90;74.10;;;;;;1905306;75;21051;-48
2021/11/24 06:38:10;;;;;;;3.70;3.12;;;4.90;74.00;;;;;;1905209;75;20996;-50
2021/11/24 06:40:41;;;;;;;9.65;3.55;;;4.90;72.00;;;;;;1905253;74;21043;-48
2021/11/24 06:43:10;;;;;;;3.85;2.87;;;4.90;72.60;;;;;;1905341;75;21011;-48
2021/11/24 06:45:41;;;;;;;4.70;2.52;;;4.90;72.30;;;;;;1905419;75;21032;-49
2021/11/24 06:48:11;;;;;;;6.03;3.40;;;4.90;72.30;;;;;;1905484;75;21103;-49
2021/11/24 06:50:40;;;;;;;7.92;4.12;;;4.90;71.30;;;;;;1905472;75;20984;-49
2021/11/24 06:53:09;;;;;;;2.50;2.25;;;4.90;72.70;;;;;;1905486;75;21094;-48
2021/11/24 06:55:38;;;;;;;3.80;3.00;;;5.00;69.60;;;;;;1905404;75;21007;-48
2021/11/24 06:58:08;;;;;;;3.85;3.33;;;4.90;67.80;;;;;;1905563;75;21039;-49
2021/11/24 07:00:37;;;;;;;6.15;3.50;;;4.90;70.90;;;;;;1905381;75;21157;-49
2021/11/24 07:03:07;;;;;;;8.03;4.03;;;4.90;71.30;;;;;;1905353;75;21095;-49
2021/11/24 07:05:36;;;;;;;2.50;1.85;;;4.90;72.40;;;;;;1905477;75;21007;-48
2021/11/24 07:08:06;;;;;;;2.50;1.95;;;4.90;67.30;;;;;;1905379;75;21028;-48
2021/11/24 07:10:36;;;;;;;2.70;1.60;;;4.90;68.10;;;;;;1905485;75;21011;-48
2021/11/24 07:13:05;;;;;;;5.87;2.45;;;4.90;64.70;;;;;;1905454;75;21027;-48
2021/11/24 07:15:35;;;;;;;2.95;2.65;;;4.90;68.30;;;;;;1905443;75;21081;-49
2021/11/24 07:18:04;;;;;;;4.12;2.58;;;4.90;67.90;;;;;;1905233;75;21239;-47
2021/11/24 07:20:33;;;;;;;3.50;2.08;;;4.90;67.30;;;;;;1905394;75;21008;-47
2021/11/24 07:23:03;;;;;;;5.12;3.67;;;4.90;66.50;;;;;;1905277;75;21079;-49
2021/11/24 07:25:32;;;;;;;5.00;2.90;;;4.90;68.00;;;;;;1905269;75;21051;-49
2021/11/24 07:28:02;;;;;;;6.45;3.12;;;4.90;68.10;;;;;;1905326;75;21059;-48
2021/11/24 07:30:31;;;;;;;5.33;2.52;;;5.00;69.60;;;;;;1905241;75;21133;-49
2021/11/24 07:33:01;;;;;;;3.50;2.35;;;4.90;65.90;;;;;;1905269;75;21023;-50
2021/11/24 07:35:32;;;;;;;4.40;2.85;;;5.00;66.40;;;;;;1905224;75;21056;-52
2021/11/24 07:38:02;;;;;;;2.90;2.30;;;4.90;67.10;;;;;;1905215;75;21054;-44
2021/11/24 07:40:31;;;;;;;3.25;2.70;;;4.90;65.90;;;;;;1904028;75;21121;-44
2021/11/24 07:43:00;;;;;;;4.12;3.10;;;5.00;67.30;;;;;;1923207;74;21031;-44
2021/11/24 07:45:30;;;;;;;3.17;2.15;;;5.00;67.30;;;;;;1923948;74;21437;-45
2021/11/24 07:48:00;;;;;;;4.80;3.12;;;5.00;63.30;;;;;;1924066;74;21137;-45
2021/11/24 07:50:29;;;;;;;4.78;3.33;;;5.00;64.70;;;;;;1923691;74;21124;-45
2021/11/24 07:52:59;;;;;;;3.60;1.72;;;5.00;66.80;;;;;;1923986;74;21035;-46
2021/11/24 07:55:29;;;;;;;3.02;2.72;;;5.00;64.00;;;;;;1923811;74;21099;-45
2021/11/24 07:57:58;;;;;;;5.70;3.25;;;4.90;64.60;;;;;;1884075;74;21034;-46
2021/11/24 08:00:28;;;;;;;6.37;3.20;;;4.90;64.10;;;;;;1923822;74;21019;-45
2021/11/24 08:02:58;;;;;;;3.47;2.90;;;5.00;64.80;;;;;;1923934;74;21070;-45
2021/11/24 08:05:27;;;;;;;16.67;8.30;;;5.00;67.30;;;;;;1923823;74;21080;-44
2021/11/24 08:07:57;;;;;;;4.97;3.45;;;5.10;67.30;;;;;;1923866;74;21023;-49
2021/11/24 08:10:26;;;;;;;2.70;2.10;;;5.20;65.50;;;;;;1924174;74;21444;-45
2021/11/24 08:12:55;;;;;;;3.65;2.40;;;5.20;65.40;;;;;;1923526;74;21066;-45
2021/11/24 08:15:25;;;;;;;5.83;2.77;;;5.20;64.70;;;;;;1923916;74;21007;-45
2021/11/24 08:17:54;;;;;;;6.37;5.12;;;5.20;64.00;;;;;;1924170;74;21026;-45
2021/11/24 08:20:24;;;;;;;5.25;3.55;;;5.20;66.40;;;;;;1923640;74;20995;-45
2021/11/24 08:22:53;;;;;;;2.90;1.98;;;5.20;64.50;;;;;;1923957;74;21051;-44
2021/11/24 08:25:22;;;;;;;6.05;3.60;;;5.30;64.50;;;;;;1923955;74;21038;-44
2021/11/24 08:27:52;;;;;;;4.42;3.92;;;5.30;65.40;;;;;;1923762;74;21003;-47
2021/11/24 08:30:22;;;;;;;5.22;2.80;;;5.30;64.50;;;;;;1923892;74;21128;-44
2021/11/24 08:32:52;;;;;;;3.72;2.47;;;5.30;65.50;;;;;;1923859;74;21061;-45
2021/11/24 08:35:23;;;;;;;2.77;1.98;;;5.40;64.10;;;;;;1923756;74;20998;-46
2021/11/24 08:37:53;;;;;;;6.03;3.40;;;5.40;65.00;;;;;;1923966;74;21065;-45
2021/11/24 08:40:23;;;;;;;0.90;0.90;;;5.40;65.90;;;;;;1923839;74;21172;-45
2021/11/24 08:42:52;;;;;;;6.90;2.80;;;5.40;62.00;;;;;;1923686;74;21163;-45
2021/11/24 08:45:23;;;;;;;3.92;2.98;;;5.50;65.90;;;;;;1923957;74;21022;-47
2021/11/24 08:47:52;;;;;;;4.15;2.50;;;5.50;64.20;;;;;;1924043;74;21168;-45
2021/11/24 08:50:21;;;;;;;2.20;1.85;;;5.50;65.20;;;;;;1923804;74;21019;-44
2021/11/24 08:52:51;;;;;;;6.75;2.95;;;5.60;65.40;;;;;;1924063;74;21084;-45
2021/11/24 08:55:21;;;;;;;3.08;1.80;;;5.60;64.90;;;;;;1924113;74;21496;-48
2021/11/24 08:57:51;;;;;;;2.27;1.82;;;5.60;60.50;;;;;;1923728;74;21027;-45
2021/11/24 09:00:22;;;;;;;2.30;1.35;;;5.50;58.40;;;;;;1923936;74;21003;-45
2021/11/24 09:02:52;;;;;;;1.92;1.42;;;5.50;59.30;;;;;;1924031;74;21085;-46
2021/11/24 09:05:22;;;;;;;3.42;2.35;;;5.50;59.80;;;;;;1923830;74;20999;-45
2021/11/24 09:07:52;;;;;;;3.98;2.50;;;5.50;61.90;;;;;;1923966;74;21185;-46
2021/11/24 09:10:21;;;;;;;2.70;1.70;;;5.50;60.80;;;;;;1923927;74;21018;-46
2021/11/24 09:12:51;;;;;;;2.80;1.80;;;5.50;59.30;;;;;;1923680;74;21159;-45
2021/11/24 09:15:20;;;;;;;2.92;1.98;;;5.60;60.90;;;;;;1923923;74;21128;-47
2021/11/24 09:17:50;;;;;;;3.58;2.50;;;5.60;56.40;;;;;;1923995;74;21109;-44
2021/11/24 09:20:21;;;;;;;5.95;2.27;;;5.60;58.70;;;;;;1923833;74;21453;-49
2021/11/24 09:22:51;;;;;;;2.30;1.15;;;5.60;57.90;;;;;;1923823;74;21026;-45
2021/11/24 09:25:24;;;;;;;2.85;1.92;;;5.70;57.00;;;;;;1924075;74;21130;-44
2021/11/24 09:28:00;;;;;;;3.90;2.60;;;5.70;58.20;;;;;;1923779;74;21109;-45
2021/11/24 09:30:29;;;;;;;10.43;4.45;;;5.60;55.80;;;;;;1923882;74;21474;-45
2021/11/24 09:32:58;;;;;;;2.00;1.60;;;5.60;56.20;;;;;;1923855;74;21023;-45
2021/11/24 09:35:27;;;;;;;1.87;1.60;;;5.60;56.90;;;;;;1923757;74;21031;-47
2021/11/24 09:37:56;;;;;;;2.85;2.08;;;5.60;57.90;;;;;;1923957;74;21074;-46
2021/11/24 09:40:26;;;;;;;6.75;4.25;;;5.60;57.60;;;;;;1923912;74;21003;-45
2021/11/24 09:42:57;;;;;;;15.00;5.08;;;5.70;58.30;;;;;;1923666;74;21054;-44
2021/11/24 09:45:27;;;;;;;10.15;4.37;;;5.70;58.90;;;;;;1924157;74;21476;-47
2021/11/24 09:47:58;;;;;;;6.90;3.27;;;5.70;58.00;;;;;;1923783;74;21124;-45
2021/11/24 09:50:30;;;;;;;3.25;2.17;;;5.70;57.00;;;;;;1924062;74;21066;-46
2021/11/24 09:53:00;;;;;;;2.55;2.17;;;5.70;58.90;;;;;;1924136;74;21139;-45
2021/11/24 09:55:34;;;;;;;4.85;2.72;;;5.80;58.80;;;;;;1923835;74;21058;-46
2021/11/24 09:58:02;;;;;;;3.92;1.72;;;5.80;58.70;;;;;;1924082;74;21097;-45
2021/11/24 10:00:33;;;;;;;3.42;2.33;;;5.90;57.30;;;;;;1923769;74;21058;-45
2021/11/24 10:03:03;;;;;;;4.40;2.58;;;5.90;57.50;;;;;;1923800;74;21074;-45
2021/11/24 10:05:35;;;;;;;3.55;2.20;;;5.90;59.70;;;;;;1923963;74;20998;-49
2021/11/24 10:08:05;;;;;;;4.87;2.12;;;5.90;60.30;;;;;;1924061;74;21068;-46
2021/11/24 10:10:35;;;;;;;6.28;4.20;;;6.00;59.60;;;;;;1923795;74;21085;-46
2021/11/24 10:13:05;;;;;;;6.05;3.83;;;6.10;60.20;;;;;;1923825;74;21074;-46
2021/11/24 10:15:40;;;;;;;9.95;3.12;;;6.10;58.60;;;;;;1923938;74;21038;-45
2021/11/24 10:18:21;;;;;;;26.10;12.98;;;6.10;58.70;;;;;;1923832;74;21014;-45
2021/11/24 10:20:53;;;;;;;6.62;2.60;;;6.10;59.70;;;;;;1923799;74;21159;-45
2021/11/24 10:23:34;;;;;;;5.42;2.98;;;6.10;59.20;;;;;;1923953;74;21003;-45
2021/11/24 10:26:24;;;;;;;1.95;1.82;;;6.10;59.90;;;;;;1923818;74;21086;-45
2021/11/24 10:29:01;;;;;;;2.67;2.33;;;6.20;58.90;;;;;;1924028;74;21094;-47
2021/11/24 10:31:39;;;;;;;7.12;3.62;;;6.20;60.60;;;;;;1923905;74;21086;-45
2021/11/24 10:34:19;;;;;;;3.92;3.20;;;6.30;60.30;;;;;;1923596;74;21062;-48
2021/11/24 10:37:09;;;;;;;6.95;3.40;;;6.30;59.80;;;;;;1924045;74;21449;-45
2021/11/24 10:39:51;;;;;;;9.58;3.25;;;6.30;60.10;;;;;;1923953;74;21066;-45
2021/11/24 10:42:31;;;;;;;2.62;2.40;;;6.30;61.20;;;;;;1923867;74;21200;-45
2021/11/24 10:45:15;;;;;;;10.13;4.42;;;6.30;60.30;;;;;;1924142;74;21101;-44
2021/11/24 10:47:59;;;;;;;4.30;2.22;;;6.30;61.50;;;;;;1922225;74;21074;-45
2021/11/24 10:50:34;;;;;;;4.12;3.10;;;6.30;59.90;;;;;;1923981;74;21085;-45
2021/11/24 10:53:03;;;;;;;7.30;3.15;;;6.40;61.90;;;;;;1924242;74;21045;-45
2021/11/24 10:55:34;;;;;;;3.40;2.30;;;6.40;60.70;;;;;;1923641;74;21031;-45
2021/11/24 10:58:18;;;;;;;3.62;2.75;;;6.40;59.60;;;;;;1923990;74;21003;-43
2021/11/24 11:00:50;;;;;;;7.78;3.52;;;6.30;60.00;;;;;;1923933;74;21018;-44
2021/11/24 11:03:21;;;;;;;3.98;2.08;;;6.30;60.70;;;;;;1923679;74;21094;-44
2021/11/24 11:05:53;;;;;;;5.12;3.12;;;6.30;60.20;;;;;;1923942;74;21011;-44
2021/11/24 11:08:22;;;;;;;5.58;2.98;;;6.20;61.00;;;;;;1924098;74;21554;-46
2021/11/24 11:10:54;;;;;;;12.53;3.52;;;6.10;61.60;;;;;;1923641;74;21128;-45
2021/11/24 11:13:23;;;;;;;4.85;2.47;;;6.10;61.30;;;;;;1923704;74;21058;-45
2021/11/24 11:15:54;;;;;;;3.15;2.47;;;6.00;60.80;;;;;;1923874;74;21050;-45
2021/11/24 11:18:29;;;;;;;8.10;5.67;;;5.90;62.00;;;;;;1923653;74;21120;-46
2021/11/24 11:21:14;;;;;;;5.65;4.45;;;5.90;62.60;;;;;;1923422;74;21113;-45
2021/11/24 11:23:50;;;;;;;9.57;4.10;;;5.90;63.10;;;;;;1924112;74;21018;-45
2021/11/24 11:26:20;;;;;;;4.10;3.42;;;5.90;63.20;;;;;;1923267;74;21528;-46
2021/11/24 11:28:55;;;;;;;5.58;3.65;;;5.90;62.80;;;;;;1923931;74;21143;-46
2021/11/24 11:31:28;;;;;;;5.62;3.05;;;5.90;63.20;;;;;;1923850;74;21096;-45
2021/11/24 11:34:02;;;;;;;3.95;3.55;;;6.00;63.20;;;;;;1923905;74;21501;-47
2021/11/24 11:36:30;;;;;;;;;;;6.00;63.40;;;;;;1927026;74;21100;-49
2021/11/24 11:39:01;;;;;;;6.97;2.58;;;6.10;62.40;;;;;;1923777;74;20270;-44
2021/11/24 11:41:37;;;;;;;3.45;2.75;;;6.00;62.30;;;;;;1924079;74;21074;-48
2021/11/24 11:44:07;;;;;;;4.47;2.60;;;6.00;63.00;;;;;;1916284;74;21047;-45
2021/11/24 11:46:50;;;;;;;5.30;3.42;;;6.00;62.80;;;;;;1904407;75;21104;-46
2021/11/24 11:49:22;;;;;;;5.47;3.45;;;6.00;62.70;;;;;;1904812;75;21035;-47
2021/11/24 11:51:54;;;;;;;7.10;3.30;;;5.90;62.80;;;;;;1904725;75;21078;-47
2021/11/24 11:54:31;;;;;;;6.33;3.60;;;5.90;63.20;;;;;;1904616;75;21413;-47
2021/11/24 11:57:04;;;;;;;6.17;3.33;;;5.80;63.80;;;;;;1904660;75;21144;-45
2021/11/24 11:59:38;;;;;;;5.95;3.90;;;5.80;64.00;;;;;;1904519;75;21012;-48
2021/11/24 12:02:11;;;;;;;4.25;3.02;;;5.70;64.40;;;;;;1904667;75;21109;-45
2021/11/24 12:04:45;;;;;;;3.77;2.98;;;5.70;63.70;;;;;;1904820;75;21109;-46
2021/11/24 12:07:19;;;;;;;2.87;2.20;;;5.60;63.50;;;;;;1904710;75;21136;-46
2021/11/24 12:09:57;;;;;;;3.35;1.77;;;5.50;63.30;;;;;;1904491;75;21047;-46
2021/11/24 12:12:37;;;;;;;5.35;3.67;;;5.50;63.10;;;;;;1904601;75;22107;-49
2021/11/24 12:15:20;;;;;;;6.33;2.85;;;5.50;63.90;;;;;;1904338;74;21071;-46
2021/11/24 12:17:51;;;;;;;4.22;3.27;;;5.60;63.70;;;;;;1905506;75;21008;-45
2021/11/24 12:20:27;;;;;;;5.45;3.55;;;5.60;64.20;;;;;;1905457;75;21023;-46
2021/11/24 12:22:56;;;;;;;6.12;4.17;;;5.60;64.50;;;;;;1905252;74;21133;-45
2021/11/24 12:25:30;;;;;;;4.72;3.17;;;5.70;64.00;;;;;;1905372;75;21027;-46
2021/11/24 12:28:09;;;;;;;5.03;2.98;;;5.70;64.30;;;;;;1905457;75;21477;-46
2021/11/24 12:30:46;;;;;;;8.80;3.95;;;5.60;63.30;;;;;;1904417;74;21091;-48
2021/11/24 12:33:16;;;;;;;5.67;3.22;;;5.50;64.10;;;;;;1904972;74;21083;-45
2021/11/24 12:35:48;;;;;;;4.83;3.87;;;5.50;63.60;;;;;;1905633;75;21477;-48
2021/11/24 12:38:19;;;;;;;9.15;4.45;;;5.40;64.10;;;;;;1905505;75;21497;-46
2021/11/24 12:40:51;;;;;;;7.60;3.87;;;5.40;63.40;;;;;;1905279;75;21077;-48
2021/11/24 12:43:22;;;;;;;4.40;3.17;;;5.40;63.00;;;;;;1905386;75;21462;-44
2021/11/24 12:46:13;;;;;;;4.97;3.10;;;5.40;63.00;;;;;;1922634;74;21118;-45
2021/11/24 12:48:51;;;;;;;6.90;4.08;;;5.40;62.30;;;;;;1924848;74;21010;-47
2021/11/24 12:51:31;;;;;;;7.50;3.85;;;5.40;62.80;;;;;;1924727;74;21026;-46
2021/11/24 12:54:12;;;;;;;4.58;2.87;;;5.30;63.30;;;;;;1924827;74;21084;-46
2021/11/24 12:56:47;;;;;;;7.47;4.67;;;5.30;62.20;;;;;;1924764;74;20995;-46
2021/11/24 12:59:19;;;;;;;8.50;4.45;;;5.30;62.40;;;;;;1924893;74;21007;-47
2021/11/24 13:01:53;;;;;;;4.30;3.33;;;5.30;63.10;;;;;;1924747;74;21023;-47
2021/11/24 13:04:25;;;;;;;9.03;5.08;;;5.30;63.20;;;;;;1924145;74;21432;-46
2021/11/24 13:06:56;;;;;;;7.35;4.67;;;5.30;64.00;;;;;;1924600;74;21066;-45
2021/11/24 13:09:31;;;;;;;9.60;4.97;;;5.30;63.60;;;;;;1924625;74;21002;-46
2021/11/24 13:12:05;;;;;;;7.87;3.98;;;5.20;64.00;;;;;;1924820;74;20995;-48